Time;durP1;ratioP1;P1;durP2;ratioP2;P2;SDS_P1;SDS_P2;PMS_P1;PMS_P2;Temp;Humidity;BMP_temperature;BMP_pressure;BME280_temperature;BME280_humidity;BME280_pressure;Samples;Min_cycle;Max_cycle;Signal;HPM_P1;HPM_P2
2021/01/15 00:00:23;;;;;;;10.33;5.83;;;;;;;4.52;100.00;102611.02;1910186;75;26205;-74
2021/01/15 00:02:57;;;;;;;11.43;6.27;;;;;;;4.48;100.00;102612.47;1910273;75;26202;-76
2021/01/15 00:05:30;;;;;;;13.60;5.97;;;;;;;4.48;100.00;102619.87;1910420;75;26275;-76
2021/01/15 00:07:59;;;;;;;10.10;5.67;;;;;;;4.50;100.00;102626.00;1910325;74;26260;-73
2021/01/15 00:10:29;;;;;;;9.00;6.10;;;;;;;4.44;100.00;102629.58;1910063;75;26229;-74
2021/01/15 00:12:59;;;;;;;10.10;6.00;;;;;;;4.38;100.00;102631.23;1910146;75;26318;-74
2021/01/15 00:15:29;;;;;;;11.57;6.53;;;;;;;4.26;100.00;102633.36;1910005;75;26359;-74
2021/01/15 00:17:59;;;;;;;9.77;6.03;;;;;;;4.38;100.00;102638.62;1910103;75;26245;-74
2021/01/15 00:20:28;;;;;;;10.00;5.73;;;;;;;4.33;100.00;102643.87;1910079;75;26244;-73
2021/01/15 00:22:58;;;;;;;7.60;5.87;;;;;;;4.19;100.00;102649.83;1910137;75;26252;-74
2021/01/15 00:25:28;;;;;;;9.40;6.80;;;;;;;4.22;100.00;102649.41;1910049;75;26194;-74
2021/01/15 00:27:58;;;;;;;9.43;5.77;;;;;;;4.30;100.00;102654.77;1910029;75;26193;-73
2021/01/15 00:30:28;;;;;;;9.20;6.10;;;;;;;4.20;100.00;102655.62;1910039;75;26195;-73
2021/01/15 00:32:58;;;;;;;10.37;6.33;;;;;;;4.22;100.00;102647.19;1910069;75;26263;-74
2021/01/15 00:35:28;;;;;;;10.97;6.07;;;;;;;4.09;100.00;102652.91;1910046;75;26201;-74
2021/01/15 00:37:58;;;;;;;8.93;5.70;;;;;;;3.97;100.00;102649.00;1910046;75;26714;-74
2021/01/15 00:40:28;;;;;;;12.77;5.97;;;;;;;3.93;100.00;102652.34;1910035;75;26267;-73
2021/01/15 00:42:58;;;;;;;12.47;5.60;;;;;;;3.96;100.00;102654.69;1910031;75;26198;-76
2021/01/15 00:45:31;;;;;;;8.90;5.77;;;;;;;3.83;100.00;102665.03;1910077;75;26186;-73
2021/01/15 00:48:00;;;;;;;9.87;5.23;;;;;;;3.89;100.00;102658.77;1910004;75;26198;-73
2021/01/15 00:50:29;;;;;;;7.77;5.60;;;;;;;3.83;100.00;102663.66;1910052;75;26314;-74
2021/01/15 00:52:59;;;;;;;9.43;5.37;;;;;;;3.76;100.00;102657.26;1910051;75;26712;-74
2021/01/15 00:55:29;;;;;;;12.33;6.37;;;;;;;3.66;100.00;102668.56;1909919;75;26353;-73
2021/01/15 00:57:59;;;;;;;9.23;5.77;;;;;;;3.69;100.00;102667.31;1910033;75;26239;-76
2021/01/15 01:00:29;;;;;;;10.83;5.77;;;;;;;3.63;100.00;102667.59;1910038;75;26233;-73
2021/01/15 01:03:00;;;;;;;9.83;5.83;;;;;;;3.57;100.00;102668.36;1910053;75;26248;-76
2021/01/15 01:05:30;;;;;;;8.37;5.37;;;;;;;3.46;100.00;102666.13;1910058;75;26644;-76
2021/01/15 01:08:00;;;;;;;9.67;6.10;;;;;;;3.51;100.00;102668.27;1910012;75;26246;-75
2021/01/15 01:10:31;;;;;;;9.23;5.97;;;;;;;3.49;100.00;102667.11;1910234;75;26206;-75
2021/01/15 01:13:01;;;;;;;10.17;5.97;;;;;;;3.39;100.00;102667.93;1910086;75;26652;-75
2021/01/15 01:15:31;;;;;;;8.23;6.63;;;;;;;3.29;100.00;102672.05;1910032;75;26672;-75
2021/01/15 01:18:01;;;;;;;8.63;5.63;;;;;;;3.25;100.00;102681.20;1910146;75;26264;-76
2021/01/15 01:20:31;;;;;;;10.87;6.30;;;;;;;3.26;100.00;102682.02;1910068;75;26189;-75
2021/01/15 01:23:00;;;;;;;10.43;6.33;;;;;;;3.12;100.00;102674.98;1910035;75;26701;-76
2021/01/15 01:25:30;;;;;;;11.37;6.37;;;;;;;3.04;100.00;102681.10;1910059;75;26665;-76
2021/01/15 01:28:00;;;;;;;10.20;6.10;;;;;;;3.07;100.00;102680.74;1910146;75;26209;-76
2021/01/15 01:30:30;;;;;;;10.77;6.03;;;;;;;3.24;100.00;102693.73;1910092;75;26178;-76
2021/01/15 01:33:00;;;;;;;12.10;7.13;;;;;;;3.25;100.00;102698.19;1910092;75;26252;-76
2021/01/15 01:35:30;;;;;;;10.23;6.80;;;;;;;3.28;100.00;102702.77;1910047;75;26287;-76
2021/01/15 01:37:59;;;;;;;10.13;6.77;;;;;;;3.24;100.00;102710.21;1910073;75;26244;-76
2021/01/15 01:40:31;;;;;;;11.60;7.07;;;;;;;3.28;100.00;102706.04;1910069;75;26286;-76
2021/01/15 01:43:00;;;;;;;8.33;6.27;;;;;;;3.18;100.00;102706.33;1910125;75;26188;-76
2021/01/15 01:45:31;;;;;;;12.40;7.20;;;;;;;3.30;100.00;102697.07;1910039;75;26267;-76
2021/01/15 01:48:02;;;;;;;9.67;6.73;;;;;;;3.26;100.00;102701.24;1910089;75;26273;-75
2021/01/15 01:50:34;;;;;;;11.07;7.73;;;;;;;3.17;100.00;102708.22;1910148;75;26213;-75
2021/01/15 01:53:06;;;;;;;9.43;6.90;;;;;;;3.00;100.00;102702.59;1910309;75;26178;-75
2021/01/15 01:55:38;;;;;;;9.67;7.10;;;;;;;3.10;100.00;102718.79;1910056;75;26222;-76
2021/01/15 01:58:08;;;;;;;14.30;8.07;;;;;;;3.15;100.00;102730.91;1910129;75;26639;-75
2021/01/15 02:00:40;;;;;;;13.00;8.43;;;;;;;3.18;100.00;102729.67;1910021;75;26193;-75
2021/01/15 02:03:12;;;;;;;10.80;7.87;;;;;;;3.15;100.00;102735.55;1910026;75;26196;-75
2021/01/15 02:05:42;;;;;;;10.17;8.27;;;;;;;3.11;100.00;102734.23;1909866;75;26668;-75
2021/01/15 02:08:12;;;;;;;12.43;7.90;;;;;;;3.08;100.00;102742.86;1910001;75;26194;-75
2021/01/15 02:10:45;;;;;;;11.57;7.80;;;;;;;2.99;100.00;102748.96;1893734;75;26180;-75
2021/01/15 02:13:20;;;;;;;13.63;7.63;;;;;;;3.04;100.00;102751.97;1938778;74;26200;-75
2021/01/15 02:15:53;;;;;;;15.27;8.20;;;;;;;3.09;100.00;102750.88;1944593;73;26251;-75
2021/01/15 02:18:27;;;;;;;11.43;8.33;;;;;;;3.13;100.00;102759.59;1938880;74;26595;-75
2021/01/15 02:21:37;;;;;;;12.03;8.33;;;;;;;3.05;100.00;102765.17;1939079;74;26238;-74
2021/01/15 02:24:13;;;;;;;16.67;8.93;;;;;;;3.02;100.00;102764.19;1938590;74;26286;-75
2021/01/15 02:27:14;;;;;;;12.97;8.33;;;;;;;2.97;100.00;102765.27;1939515;73;26685;-74
2021/01/15 02:29:49;;;;;;;14.10;8.37;;;;;;;2.96;100.00;102767.67;1939056;73;26623;-74
2021/01/15 02:32:38;;;;;;;12.87;7.63;;;;;;;3.00;100.00;102773.12;1938775;74;26727;-74
2021/01/15 02:35:28;;;;;;;14.63;8.10;;;;;;;3.00;100.00;102786.84;1939258;73;26258;-74
2021/01/15 02:38:10;;;;;;;13.60;9.00;;;;;;;2.95;100.00;102786.58;1938986;74;26185;-73
2021/01/15 02:40:44;;;;;;;9.70;7.73;;;;;;;3.01;100.00;102788.05;1938936;74;26159;-73
2021/01/15 02:43:16;;;;;;;10.23;8.43;;;;;;;2.79;100.00;102791.70;1939266;74;26696;-76
2021/01/15 02:45:49;;;;;;;10.83;8.07;;;;;;;2.90;100.00;102791.77;1939093;74;26667;-73
2021/01/15 02:48:21;;;;;;;9.60;7.40;;;;;;;2.91;100.00;102794.31;1939224;74;26209;-76
2021/01/15 02:50:52;;;;;;;15.20;9.27;;;;;;;2.81;100.00;102788.77;1939102;74;26679;-74
2021/01/15 02:53:22;;;;;;;14.03;8.47;;;;;;;2.78;100.00;102793.27;1939030;74;26201;-74
2021/01/15 02:55:52;;;;;;;14.67;8.63;;;;;;;2.75;100.00;102794.48;1939217;73;26168;-74
2021/01/15 02:58:22;;;;;;;14.10;7.60;;;;;;;2.64;100.00;102790.83;1939029;74;26658;-73
2021/01/15 03:00:52;;;;;;;9.40;7.40;;;;;;;2.75;100.00;102790.36;1939170;74;26251;-73
2021/01/15 03:03:26;;;;;;;11.03;7.70;;;;;;;2.75;100.00;102795.34;1939086;74;26155;-73
2021/01/15 03:06:00;;;;;;;15.63;8.17;;;;;;;2.47;100.00;102798.34;1939364;74;26702;-73
2021/01/15 03:08:31;;;;;;;11.27;6.87;;;;;;;2.63;100.00;102796.83;1939094;74;26202;-73
2021/01/15 03:11:03;;;;;;;10.83;7.50;;;;;;;2.59;100.00;102805.61;1939002;73;26265;-76
2021/01/15 03:13:35;;;;;;;11.43;6.97;;;;;;;2.35;100.00;102805.83;1939072;74;26304;-74
2021/01/15 03:16:06;;;;;;;14.17;7.33;;;;;;;2.41;100.00;102811.41;1939076;74;26176;-75
2021/01/15 03:18:38;;;;;;;15.67;7.53;;;;;;;2.67;100.00;102802.28;1939117;74;26603;-73
2021/01/15 03:21:08;;;;;;;12.20;7.40;;;;;;;2.69;100.00;102812.56;1939187;74;26669;-74
2021/01/15 03:23:39;;;;;;;13.70;7.80;;;;;;;2.71;100.00;102813.22;1939160;74;26683;-73
2021/01/15 03:26:09;;;;;;;12.03;8.40;;;;;;;2.80;100.00;102818.11;1939268;74;26193;-74
2021/01/15 03:28:39;;;;;;;12.80;8.17;;;;;;;2.81;100.00;102821.70;1939166;74;26264;-74
2021/01/15 03:31:09;;;;;;;10.93;7.50;;;;;;;2.84;100.00;102824.07;1939237;74;26212;-74
2021/01/15 03:33:38;;;;;;;10.77;7.37;;;;;;;2.62;100.00;102824.44;1939277;74;26171;-74
2021/01/15 03:36:09;;;;;;;10.83;7.60;;;;;;;2.35;100.00;102829.14;1939111;74;26219;-74
2021/01/15 03:38:39;;;;;;;14.80;7.67;;;;;;;2.38;100.00;102842.47;1926634;74;26236;-74
2021/01/15 03:41:08;;;;;;;13.43;8.63;;;;;;;2.65;100.00;102840.00;1926599;74;26180;-74
2021/01/15 03:43:38;;;;;;;13.00;7.57;;;;;;;2.56;100.00;102846.63;1910054;75;26194;-74
2021/01/15 03:46:08;;;;;;;15.50;8.33;;;;;;;2.25;100.00;102843.08;1910025;75;26193;-74
2021/01/15 03:48:38;;;;;;;12.20;8.70;;;;;;;2.19;100.00;102847.91;1910035;75;26264;-74
2021/01/15 03:51:08;;;;;;;14.07;7.83;;;;;;;2.50;100.00;102846.49;1910051;75;26641;-74
2021/01/15 03:53:39;;;;;;;10.50;6.83;;;;;;;2.64;100.00;102856.67;1910043;75;26264;-74
2021/01/15 03:56:09;;;;;;;12.23;7.43;;;;;;;2.63;100.00;102854.96;1909977;75;26334;-74
2021/01/15 03:58:39;;;;;;;12.10;7.80;;;;;;;2.60;100.00;102856.20;1910018;75;26195;-74
2021/01/15 04:01:09;;;;;;;9.93;7.13;;;;;;;2.66;100.00;102851.84;1910035;75;26267;-74
2021/01/15 04:03:39;;;;;;;13.27;7.93;;;;;;;2.67;100.00;102859.05;1910030;75;26209;-73
2021/01/15 04:06:09;;;;;;;11.33;7.77;;;;;;;2.33;100.00;102863.59;1910007;75;26194;-73
2021/01/15 04:08:40;;;;;;;11.90;8.03;;;;;;;2.49;100.00;102873.06;1910058;75;26252;-74
2021/01/15 04:11:09;;;;;;;13.13;8.33;;;;;;;2.30;100.00;102885.89;1909974;75;26350;-74
2021/01/15 04:13:39;;;;;;;12.80;7.50;;;;;;;2.24;100.00;102879.23;1910021;75;26233;-73
2021/01/15 04:16:11;;;;;;;11.67;8.27;;;;;;;2.39;100.00;102881.22;1909990;75;26225;-73
2021/01/15 04:18:40;;;;;;;11.90;8.10;;;;;;;2.39;100.00;102882.59;1910135;75;26193;-74
2021/01/15 04:21:12;;;;;;;13.00;8.07;;;;;;;2.45;100.00;102885.95;1910000;75;26290;-74
2021/01/15 04:23:43;;;;;;;10.77;7.43;;;;;;;2.33;100.00;102894.27;1909894;75;26217;-74
2021/01/15 04:26:18;;;;;;;14.07;7.77;;;;;;;2.39;100.00;102897.66;1910141;75;26193;-74
2021/01/15 04:28:50;;;;;;;14.23;8.20;;;;;;;2.29;100.00;102900.13;1910045;75;26178;-74
2021/01/15 04:31:20;;;;;;;12.13;8.17;;;;;;;2.35;100.00;102901.81;1909986;75;26260;-74
2021/01/15 04:33:50;;;;;;;11.47;7.77;;;;;;;2.20;100.00;102901.71;1910004;75;26304;-74
2021/01/15 04:36:20;;;;;;;10.27;7.37;;;;;;;1.84;100.00;102900.85;1910091;75;26244;-74
2021/01/15 04:38:50;;;;;;;11.67;7.73;;;;;;;1.66;100.00;102901.63;1910022;75;26222;-73
2021/01/15 04:41:23;;;;;;;9.83;7.20;;;;;;;1.66;100.00;102904.37;1909986;75;26233;-74
2021/01/15 04:43:56;;;;;;;13.40;7.87;;;;;;;1.87;100.00;102909.25;1910103;75;26190;-74
2021/01/15 04:46:26;;;;;;;11.10;7.73;;;;;;;1.94;100.00;102918.97;1910000;75;26722;-74
2021/01/15 04:48:57;;;;;;;12.60;7.87;;;;;;;1.89;100.00;102912.65;1910012;75;26284;-74
2021/01/15 04:51:28;;;;;;;14.43;8.67;;;;;;;1.80;100.00;102917.82;1910009;75;26658;-73
2021/01/15 04:54:01;;;;;;;12.43;8.87;;;;;;;1.89;100.00;102919.50;1910025;75;26662;-73
2021/01/15 04:56:39;;;;;;;16.00;9.23;;;;;;;2.03;100.00;102919.28;1909962;75;26248;-74
2021/01/15 04:59:11;;;;;;;13.63;9.20;;;;;;;2.06;100.00;102926.62;1910101;75;26193;-73
2021/01/15 05:01:43;;;;;;;16.17;8.43;;;;;;;2.10;100.00;102928.48;1882678;75;932777;-74
2021/01/15 05:04:15;;;;;;;15.63;9.63;;;;;;;1.94;100.00;102932.16;1886761;76;26230;-75
2021/01/15 05:06:50;;;;;;;12.93;8.77;;;;;;;2.19;100.00;102936.50;1886852;76;26304;-74
2021/01/15 05:09:21;;;;;;;14.93;10.13;;;;;;;1.99;100.00;102933.86;1886861;76;26215;-74
2021/01/15 05:11:52;;;;;;;16.47;9.87;;;;;;;2.30;100.00;102939.38;1896229;74;26321;-74
2021/01/15 05:14:23;;;;;;;15.80;9.73;;;;;;;2.28;100.00;102935.42;1886876;76;26756;-73
2021/01/15 05:16:55;;;;;;;12.20;9.40;;;;;;;2.33;100.00;102933.52;1886944;75;26720;-73
2021/01/15 05:19:25;;;;;;;14.90;9.70;;;;;;;2.14;100.00;102931.23;1886709;75;26692;-74
2021/01/15 05:21:54;;;;;;;15.10;9.00;;;;;;;2.28;100.00;102936.80;1886991;76;26714;-74
2021/01/15 05:24:24;;;;;;;18.00;8.97;;;;;;;2.28;100.00;102940.05;1886930;75;26776;-74
2021/01/15 05:26:55;;;;;;;13.10;8.97;;;;;;;1.94;100.00;102939.52;1886901;75;26215;-74
2021/01/15 05:29:24;;;;;;;15.47;9.17;;;;;;;1.95;100.00;102936.62;1886850;76;26658;-74
2021/01/15 05:31:56;;;;;;;16.93;9.70;;;;;;;1.89;100.00;102941.94;1886853;76;26297;-74
2021/01/15 05:34:27;;;;;;;15.87;10.43;;;;;;;2.03;100.00;102942.58;1886873;76;26214;-74
2021/01/15 05:36:57;;;;;;;15.73;10.17;;;;;;;2.17;100.00;102952.80;1896089;76;26188;-74
2021/01/15 05:39:28;;;;;;;16.50;10.03;;;;;;;2.36;100.00;102946.86;1886918;75;26227;-74
2021/01/15 05:42:01;;;;;;;17.13;10.43;;;;;;;2.53;100.00;102953.95;1896099;76;26183;-76
2021/01/15 05:44:33;;;;;;;19.43;10.77;;;;;;;2.58;100.00;102955.64;1886902;76;26258;-76
2021/01/15 05:47:03;;;;;;;16.67;10.63;;;;;;;2.63;100.00;102968.31;1896351;75;26184;-73
2021/01/15 05:49:33;;;;;;;16.40;10.60;;;;;;;2.50;100.00;102965.30;1886915;75;26285;-74
2021/01/15 05:52:07;;;;;;;18.60;10.30;;;;;;;2.56;100.00;102971.97;1896183;75;26172;-73
2021/01/15 05:54:37;;;;;;;15.03;10.90;;;;;;;2.57;100.00;102979.14;1886840;76;26231;-76
2021/01/15 05:57:07;;;;;;;16.33;10.50;;;;;;;2.46;100.00;102987.27;1896110;76;26186;-76
2021/01/15 05:59:39;;;;;;;15.47;9.47;;;;;;;2.54;100.00;102987.73;1886920;75;26767;-76
2021/01/15 06:02:10;;;;;;;13.37;10.50;;;;;;;2.41;100.00;102988.32;1886855;75;26698;-76
2021/01/15 06:04:41;;;;;;;15.00;10.07;;;;;;;2.60;100.00;103000.23;1896151;75;26192;-74
2021/01/15 06:07:21;;;;;;;15.40;10.83;;;;;;;2.47;100.00;103000.47;1886898;75;26300;-76
2021/01/15 06:09:53;;;;;;;16.47;10.07;;;;;;;2.48;100.00;102993.95;1896219;75;26209;-75
2021/01/15 06:12:23;;;;;;;14.50;9.90;;;;;;;2.63;100.00;102998.48;1886288;75;26332;-75
2021/01/15 06:14:57;;;;;;;16.70;11.47;;;;;;;2.66;100.00;103006.35;1886972;75;26218;-75
2021/01/15 06:17:27;;;;;;;13.97;9.87;;;;;;;2.65;100.00;103016.16;1896434;75;26296;-75
2021/01/15 06:20:02;;;;;;;17.03;10.00;;;;;;;2.58;100.00;103020.63;1886961;76;26275;-74
2021/01/15 06:22:33;;;;;;;14.73;10.00;;;;;;;2.61;100.00;103014.81;1855180;76;26708;-75
2021/01/15 06:25:11;;;;;;;14.60;10.43;;;;;;;2.63;100.00;103018.21;1886832;76;26246;-74
2021/01/15 06:27:42;;;;;;;15.63;10.13;;;;;;;2.70;100.00;103023.30;1896184;75;26186;-75
2021/01/15 06:30:17;;;;;;;18.70;10.37;;;;;;;2.58;100.00;103024.23;1886883;75;26768;-74
2021/01/15 06:32:48;;;;;;;15.70;10.37;;;;;;;2.60;100.00;103032.30;1896327;75;26187;-74
2021/01/15 06:35:27;;;;;;;14.27;10.40;;;;;;;2.69;100.00;103032.08;1887025;76;26296;-75
2021/01/15 06:38:02;;;;;;;16.30;10.47;;;;;;;2.73;100.00;103026.56;1896390;76;26179;-74
2021/01/15 06:40:35;;;;;;;16.50;10.03;;;;;;;2.68;100.00;103034.99;1886850;75;26515;-73
2021/01/15 06:43:07;;;;;;;15.03;9.87;;;;;;;2.63;100.00;103047.88;1896135;75;26630;-74
2021/01/15 06:45:41;;;;;;;14.57;10.10;;;;;;;2.47;100.00;103045.22;1886683;76;26725;-75
2021/01/15 06:48:14;;;;;;;17.90;10.70;;;;;;;2.63;100.00;103042.91;1896204;75;26178;-73
2021/01/15 06:50:45;;;;;;;14.57;10.33;;;;;;;2.58;100.00;103042.58;1886835;75;26230;-73
2021/01/15 06:53:20;;;;;;;15.03;9.90;;;;;;;2.46;100.00;103039.39;1896289;76;26190;-74
2021/01/15 06:55:52;;;;;;;15.97;10.77;;;;;;;2.56;100.00;103048.78;1886814;76;26226;-74
2021/01/15 06:58:27;;;;;;;16.47;10.73;;;;;;;2.57;100.00;103047.72;1896212;76;26264;-74
2021/01/15 07:01:19;;;;;;;19.43;11.13;;;;;;;2.62;100.00;103047.53;1886990;75;26277;-74
2021/01/15 07:04:34;;;;;;;13.53;10.07;;;;;;;2.70;100.00;103057.61;1896281;75;26168;-74
2021/01/15 07:07:17;;;;;;;16.40;10.10;;;;;;;2.71;100.00;103067.55;1878020;75;26300;-74
2021/01/15 07:09:48;;;;;;;16.93;10.70;;;;;;;2.80;100.00;103065.11;1896318;75;26626;-74
2021/01/15 07:12:19;;;;;;;16.57;10.30;;;;;;;2.80;100.00;103067.00;1886966;72;26258;-75
2021/01/15 07:14:54;;;;;;;16.20;10.67;;;;;;;2.70;100.00;103074.93;1896469;76;26198;-75
2021/01/15 07:17:35;;;;;;;17.37;11.37;;;;;;;2.61;100.00;103076.54;1887067;76;26191;-75
2021/01/15 07:20:13;;;;;;;19.33;11.13;;;;;;;2.74;100.00;103076.28;1896215;75;26186;-75
2021/01/15 07:22:49;;;;;;;15.87;10.33;;;;;;;2.70;100.00;103069.95;1886966;75;26250;-75
2021/01/15 07:25:21;;;;;;;19.70;11.60;;;;;;;2.58;100.00;103066.77;1896327;75;26245;-75
2021/01/15 07:27:52;;;;;;;17.23;11.73;;;;;;;2.70;100.00;103072.70;1887021;75;26230;-75
2021/01/15 07:30:26;;;;;;;15.80;10.57;;;;;;;2.50;100.00;103074.17;1896225;76;26210;-75
2021/01/15 07:32:58;;;;;;;16.00;11.00;;;;;;;2.44;100.00;103078.47;1886947;76;26230;-75
2021/01/15 07:35:29;;;;;;;17.30;10.77;;;;;;;2.42;100.00;103084.66;1896522;75;26245;-76
2021/01/15 07:38:13;;;;;;;16.77;10.93;;;;;;;2.37;100.00;103089.82;1887189;75;26304;-77
2021/01/15 07:40:44;;;;;;;17.73;10.37;;;;;;;2.32;100.00;103095.48;1896360;75;26186;-76
2021/01/15 07:43:33;;;;;;;16.33;10.50;;;;;;;2.25;100.00;103092.60;1886990;75;26721;-73
2021/01/15 07:46:05;;;;;;;16.07;11.00;;;;;;;2.26;100.00;103095.69;1896307;75;26649;-75
2021/01/15 07:48:35;;;;;;;21.60;11.77;;;;;;;2.29;100.00;103092.59;1887023;76;26296;-74
2021/01/15 07:51:13;;;;;;;16.67;10.77;;;;;;;2.17;100.00;103097.60;1896328;75;26627;-74
2021/01/15 07:53:45;;;;;;;15.17;10.47;;;;;;;2.09;100.00;103101.73;1886972;75;26804;-73
2021/01/15 07:56:16;;;;;;;19.33;11.97;;;;;;;2.09;100.00;103106.36;1896345;75;26182;-73
2021/01/15 07:58:47;;;;;;;18.87;11.60;;;;;;;2.05;100.00;103120.07;1886177;75;26219;-74
2021/01/15 08:01:20;;;;;;;19.00;11.77;;;;;;;2.01;100.00;103118.70;1896311;75;26186;-74
2021/01/15 08:03:54;;;;;;;17.20;11.13;;;;;;;2.06;100.00;103129.47;1886980;75;26223;-73
2021/01/15 08:06:26;;;;;;;15.00;11.10;;;;;;;1.96;100.00;103138.92;1896305;75;26677;-74
2021/01/15 08:09:01;;;;;;;18.03;11.30;;;;;;;1.96;100.00;103143.03;1887024;75;26222;-73
2021/01/15 08:11:33;;;;;;;17.77;11.17;;;;;;;2.03;100.00;103142.16;1896427;75;26170;-73
2021/01/15 08:14:13;;;;;;;17.17;11.37;;;;;;;1.96;100.00;103145.27;1887181;75;26273;-74
2021/01/15 08:16:44;;;;;;;18.53;10.83;;;;;;;1.94;100.00;103150.05;1896335;76;26283;-75
2021/01/15 08:19:16;;;;;;;17.80;11.77;;;;;;;2.13;100.00;103150.22;1886986;76;26249;-74
2021/01/15 08:21:48;;;;;;;20.13;12.43;;;;;;;2.10;100.00;103164.24;1896443;76;26186;-74
2021/01/15 08:24:18;;;;;;;18.37;12.33;;;;;;;2.10;100.00;103154.14;1887110;76;26316;-75
2021/01/15 08:26:50;;;;;;;18.53;12.33;;;;;;;2.15;100.00;103155.84;1896521;75;26626;-75
2021/01/15 08:29:22;;;;;;;20.97;11.90;;;;;;;2.13;100.00;103154.33;1887148;76;26203;-76
2021/01/15 08:31:56;;;;;;;18.87;12.13;;;;;;;2.15;100.00;103159.10;1896859;75;26601;-76
2021/01/15 08:34:32;;;;;;;20.67;13.73;;;;;;;2.17;100.00;103155.69;1887921;75;26174;-77
2021/01/15 08:37:04;;;;;;;19.73;12.50;;;;;;;2.19;100.00;103169.55;1896624;76;26266;-75
2021/01/15 08:39:45;;;;;;;23.30;13.50;;;;;;;2.22;100.00;103175.22;1887178;76;26277;-74
2021/01/15 08:42:15;;;;;;;23.80;13.30;;;;;;;2.21;100.00;103176.25;1896520;76;26181;-74
2021/01/15 08:44:49;;;;;;;20.57;12.87;;;;;;;2.27;100.00;103179.13;1887209;76;26225;-74
2021/01/15 08:47:21;;;;;;;24.47;14.67;;;;;;;2.36;100.00;103185.98;1896426;76;26183;-75
2021/01/15 08:49:55;;;;;;;22.87;13.07;;;;;;;2.46;100.00;103191.63;1887166;75;26727;-75
2021/01/15 08:52:28;;;;;;;22.87;13.83;;;;;;;2.55;100.00;103193.33;1896341;76;26168;-77
2021/01/15 08:55:00;;;;;;;20.53;13.00;;;;;;;2.57;100.00;103195.36;1886980;75;26682;-74
2021/01/15 08:57:31;;;;;;;25.63;14.43;;;;;;;2.69;100.00;103202.22;1896243;75;26263;-73
2021/01/15 09:00:11;;;;;;;21.83;14.43;;;;;;;2.80;100.00;103197.36;1886879;76;26693;-79
2021/01/15 09:02:43;;;;;;;24.00;14.53;;;;;;;2.77;100.00;103200.47;1862145;76;26665;-74
2021/01/15 09:05:15;;;;;;;22.90;14.07;;;;;;;2.80;100.00;103193.24;1886813;76;26717;-75
2021/01/15 09:07:46;;;;;;;24.70;13.93;;;;;;;2.76;100.00;103192.75;1896217;75;26699;-74
2021/01/15 09:10:18;;;;;;;23.70;14.00;;;;;;;2.78;100.00;103195.33;1886892;75;26299;-74
2021/01/15 09:12:49;;;;;;;22.33;13.20;;;;;;;2.78;100.00;103195.33;1896256;75;26622;-74
2021/01/15 09:15:23;;;;;;;22.23;13.57;;;;;;;2.77;100.00;103199.09;1886917;75;26277;-73
2021/01/15 09:17:54;;;;;;;21.80;13.57;;;;;;;2.75;100.00;103206.98;1896152;75;26234;-74
2021/01/15 09:20:24;;;;;;;23.57;13.57;;;;;;;2.75;100.00;103208.86;1886844;76;26360;-73
2021/01/15 09:22:54;;;;;;;24.77;15.10;;;;;;;2.71;100.00;103216.60;1896133;76;26748;-74
2021/01/15 09:25:25;;;;;;;23.07;14.43;;;;;;;2.96;100.00;103223.37;1886879;75;26277;-74
2021/01/15 09:27:55;;;;;;;21.80;14.20;;;;;;;2.97;100.00;103221.84;1896037;76;26264;-74
2021/01/15 09:30:26;;;;;;;24.27;15.27;;;;;;;3.00;100.00;103218.73;1886789;75;26207;-74
2021/01/15 09:32:56;;;;;;;26.07;14.97;;;;;;;3.04;100.00;103228.83;1896068;75;26629;-73
2021/01/15 09:35:26;;;;;;;24.70;14.40;;;;;;;3.02;100.00;103230.41;1886719;76;26215;-73
2021/01/15 09:37:56;;;;;;;23.43;14.20;;;;;;;3.04;100.00;103228.32;1896149;75;26602;-73
2021/01/15 09:40:26;;;;;;;23.73;14.53;;;;;;;2.99;100.00;103224.42;1886895;76;26212;-73
2021/01/15 09:42:56;;;;;;;23.97;14.67;;;;;;;3.04;100.00;103241.19;1896019;76;26633;-73
2021/01/15 09:45:26;;;;;;;23.63;14.40;;;;;;;3.09;100.00;103251.99;1886702;76;26222;-73
2021/01/15 09:47:56;;;;;;;24.47;15.60;;;;;;;2.97;100.00;103262.16;1896106;76;26174;-73
2021/01/15 09:50:25;;;;;;;23.00;15.27;;;;;;;2.89;100.00;103263.05;1886747;75;26225;-73
2021/01/15 09:52:55;;;;;;;27.57;16.60;;;;;;;3.08;100.00;103256.31;1896045;75;26700;-72
2021/01/15 09:55:25;;;;;;;25.20;16.10;;;;;;;3.16;100.00;103265.38;1886765;75;26214;-73
2021/01/15 09:57:55;;;;;;;25.93;15.77;;;;;;;3.20;100.00;103269.48;1896029;75;26370;-74
2021/01/15 10:00:26;;;;;;;24.33;15.37;;;;;;;3.22;100.00;103269.28;1886670;76;26314;-74
2021/01/15 10:02:56;;;;;;;27.80;15.50;;;;;;;3.29;100.00;103264.81;1896120;75;26248;-73
2021/01/15 10:05:27;;;;;;;27.17;15.63;;;;;;;3.26;100.00;103272.00;1886749;75;26281;-73
2021/01/15 10:07:57;;;;;;;26.60;15.90;;;;;;;3.34;100.00;103277.46;1896198;75;26179;-72
2021/01/15 10:10:28;;;;;;;25.30;15.40;;;;;;;3.29;100.00;103277.68;1886828;75;26199;-72
2021/01/15 10:12:57;;;;;;;26.43;15.83;;;;;;;3.32;100.00;103275.94;1896166;75;26268;-73
2021/01/15 10:15:28;;;;;;;25.87;16.23;;;;;;;3.40;100.00;103280.88;1886687;75;26752;-73
2021/01/15 10:17:58;;;;;;;26.73;16.70;;;;;;;3.39;100.00;103281.91;1896147;75;26260;-73
2021/01/15 10:20:28;;;;;;;27.53;16.83;;;;;;;3.37;100.00;103277.64;1886643;76;26234;-73
2021/01/15 10:22:58;;;;;;;28.70;17.07;;;;;;;3.37;100.00;103277.64;1895989;75;26194;-73
2021/01/15 10:25:28;;;;;;;26.13;17.50;;;;;;;3.27;100.00;103279.73;1886721;75;26207;-73
2021/01/15 10:27:58;;;;;;;27.93;17.07;;;;;;;3.17;100.00;103266.20;1896024;75;26186;-73
2021/01/15 10:30:28;;;;;;;26.50;17.50;;;;;;;3.28;100.00;103265.83;1886752;75;26276;-74
2021/01/15 10:32:57;;;;;;;30.07;17.80;;;;;;;3.18;100.00;103277.02;1896087;75;26171;-72
2021/01/15 10:35:27;;;;;;;29.70;19.17;;;;;;;3.40;100.00;103287.75;1886804;76;26308;-72
2021/01/15 10:37:57;;;;;;;28.93;19.47;;;;;;;3.37;100.00;103292.24;1896197;75;26271;-72
2021/01/15 10:40:27;;;;;;;31.17;19.17;;;;;;;3.43;100.00;103286.52;1886812;75;26234;-73
2021/01/15 10:42:57;;;;;;;29.00;18.83;;;;;;;3.46;100.00;103296.67;1896124;75;26341;-72
2021/01/15 10:45:27;;;;;;;28.43;18.00;;;;;;;3.43;100.00;103286.02;1886873;76;26201;-72
2021/01/15 10:47:57;;;;;;;29.33;16.70;;;;;;;3.51;100.00;103283.22;1896354;75;26671;-71
2021/01/15 10:50:26;;;;;;;27.50;17.70;;;;;;;3.36;100.00;103287.77;1886827;76;26350;-72
2021/01/15 10:52:57;;;;;;;26.20;18.00;;;;;;;3.45;100.00;103288.08;1896107;76;26238;-72
2021/01/15 10:55:30;;;;;;;27.57;17.53;;;;;;;3.59;100.00;103283.72;1886934;75;26197;-72
2021/01/15 10:58:00;;;;;;;23.17;16.20;;;;;;;3.38;100.00;103288.98;1896184;75;26176;-72
2021/01/15 11:00:30;;;;;;;25.23;17.23;;;;;;;3.65;100.00;103297.59;1886954;75;26206;-72
2021/01/15 11:03:00;;;;;;;25.27;17.73;;;;;;;3.70;100.00;103298.94;1896193;75;26183;-71
2021/01/15 11:05:30;;;;;;;25.40;15.47;;;;;;;3.57;100.00;103295.40;1886919;75;26353;-73
2021/01/15 11:07:59;;;;;;;22.23;14.13;;;;;;;3.57;100.00;103294.89;1896079;75;26190;-73
2021/01/15 11:10:29;;;;;;;23.47;15.80;;;;;;;3.60;100.00;103294.52;1886771;76;26320;-73
2021/01/15 11:13:00;;;;;;;23.93;14.73;;;;;;;3.66;100.00;103281.95;1896170;75;26259;-72
2021/01/15 11:15:29;;;;;;;22.80;14.80;;;;;;;3.82;100.00;103290.11;1886750;75;26262;-72
2021/01/15 11:18:00;;;;;;;22.73;14.73;;;;;;;3.72;100.00;103284.52;1896158;75;26164;-72
2021/01/15 11:20:30;;;;;;;23.37;16.17;;;;;;;3.62;100.00;103280.61;1886756;75;26211;-72
2021/01/15 11:23:00;;;;;;;24.27;14.30;;;;;;;3.54;100.00;103276.53;1896025;75;26218;-72
2021/01/15 11:25:30;;;;;;;19.93;14.53;;;;;;;3.66;100.00;103278.70;1886880;75;26186;-74
2021/01/15 11:28:00;;;;;;;22.23;13.70;;;;;;;3.72;100.00;103273.52;1896092;75;26254;-72
2021/01/15 11:30:30;;;;;;;24.63;14.83;;;;;;;3.68;100.00;103283.48;1886843;76;26206;-72
2021/01/15 11:33:00;;;;;;;23.73;13.73;;;;;;;3.70;100.00;103285.20;1896081;76;26619;-72
2021/01/15 11:35:30;;;;;;;19.23;13.30;;;;;;;3.70;100.00;103285.20;1886804;75;26215;-72